Time;durP1;ratioP1;P1;durP2;ratioP2;P2;SDS_P1;SDS_P2;PMS_P1;PMS_P2;Temp;Humidity;BMP_temperature;BMP_pressure;BME280_temperature;BME280_humidity;BME280_pressure;Samples;Min_cycle;Max_cycle;Signal;HPM_P1;HPM_P2
2022/07/08 00:00:47;;;;;;;7.70;1.52;;;;;;;17.84;49.50;98346.50;5024862;27;20370;-77
2022/07/08 00:03:12;;;;;;;3.33;1.38;;;;;;;17.89;49.40;98353.63;5017237;28;20212;-77
2022/07/08 00:05:38;;;;;;;6.80;1.73;;;;;;;17.78;49.79;98348.31;5033919;27;20386;-77
2022/07/08 00:08:04;;;;;;;5.38;1.13;;;;;;;17.69;49.81;98354.41;5030207;27;20558;-78
2022/07/08 00:10:29;;;;;;;6.95;1.50;;;;;;;17.60;50.18;98356.75;5034342;27;20723;-77
2022/07/08 00:12:54;;;;;;;5.07;1.20;;;;;;;17.73;49.59;98356.22;5029901;27;20665;-77
2022/07/08 00:15:23;;;;;;;3.05;1.05;;;;;;;17.72;49.64;98356.50;5038433;27;20213;-78
2022/07/08 00:17:48;;;;;;;6.22;1.95;;;;;;;17.58;49.63;98359.66;5022583;28;20211;-77
2022/07/08 00:20:15;;;;;;;5.25;1.40;;;;;;;17.37;50.53;98363.25;5012702;27;20099;-77
2022/07/08 00:22:40;;;;;;;3.05;1.00;;;;;;;17.44;50.38;98355.91;5032457;27;20293;-77
2022/07/08 00:25:06;;;;;;;6.78;1.63;;;;;;;17.60;49.86;98354.91;5048058;27;20586;-77
2022/07/08 00:27:31;;;;;;;4.63;1.27;;;;;;;17.64;49.76;98352.53;5033039;27;20183;-77
2022/07/08 00:29:57;;;;;;;4.07;1.15;;;;;;;17.58;49.67;98358.84;5046073;27;20202;-77
2022/07/08 00:32:22;;;;;;;4.00;2.05;;;;;;;17.53;49.90;98366.72;5046739;27;20606;-77
2022/07/08 00:34:48;;;;;;;4.30;1.25;;;;;;;17.34;50.76;98363.78;5014849;27;20351;-76
2022/07/08 00:37:13;;;;;;;3.70;1.13;;;;;;;17.24;50.71;98354.03;5012918;27;20226;-76
2022/07/08 00:39:39;;;;;;;4.85;1.42;;;;;;;17.42;50.31;98361.44;5026230;28;20374;-77
2022/07/08 00:42:05;;;;;;;7.00;1.42;;;;;;;17.32;50.62;98361.41;5040757;27;21041;-76
2022/07/08 00:44:30;;;;;;;5.45;1.50;;;;;;;17.58;49.93;98364.09;5024026;27;20208;-77
2022/07/08 00:46:56;;;;;;;3.92;1.58;;;;;;;17.53;50.08;98359.63;5023416;28;20636;-77
2022/07/08 00:49:21;;;;;;;4.20;1.38;;;;;;;17.60;50.05;98362.03;5019488;28;20219;-77
2022/07/08 00:51:47;;;;;;;5.85;1.33;;;;;;;17.51;50.11;98364.38;5044343;27;20182;-76
2022/07/08 00:54:15;;;;;;;4.32;1.60;;;;;;;17.59;49.99;98376.22;5041996;27;20271;-76
2022/07/08 00:56:40;;;;;;;6.82;2.08;;;;;;;17.69;49.59;98381.53;5043551;27;20375;-76
2022/07/08 00:59:07;;;;;;;6.72;2.08;;;;;;;17.66;49.52;98382.03;5033311;27;20622;-76
2022/07/08 01:01:33;;;;;;;4.03;1.23;;;;;;;17.65;49.82;98377.84;5039625;27;20304;-76
2022/07/08 01:03:59;;;;;;;7.57;2.00;;;;;;;17.54;50.04;98381.47;5043633;27;20661;-76
2022/07/08 01:06:24;;;;;;;6.97;1.58;;;;;;;17.47;50.44;98375.69;5034973;27;20193;-76
2022/07/08 01:08:50;;;;;;;4.18;1.30;;;;;;;17.36;50.55;98380.91;5018299;27;20295;-76
2022/07/08 01:11:15;;;;;;;5.03;1.80;;;;;;;17.20;51.07;98384.53;5047221;27;20080;-76
2022/07/08 01:13:42;;;;;;;4.97;1.50;;;;;;;17.03;51.51;98385.53;5044740;27;20192;-77
2022/07/08 01:16:08;;;;;;;3.83;1.35;;;;;;;16.88;52.48;98382.00;5029811;27;20292;-77
2022/07/08 01:18:34;;;;;;;3.95;1.60;;;;;;;16.91;52.05;98384.91;5030154;27;20277;-76
2022/07/08 01:20:59;;;;;;;4.85;1.40;;;;;;;16.93;52.03;98382.84;5046820;27;20122;-76
2022/07/08 01:23:25;;;;;;;4.40;1.95;;;;;;;16.73;52.65;98380.06;5048795;27;20204;-77
2022/07/08 01:25:51;;;;;;;4.85;1.92;;;;;;;16.74;52.84;98384.28;5024010;27;20282;-77
2022/07/08 01:28:17;;;;;;;4.75;1.50;;;;;;;16.82;52.65;98384.59;5019363;27;20342;-77
2022/07/08 01:30:42;;;;;;;6.15;1.90;;;;;;;16.90;52.32;98388.63;5039975;27;20115;-76
2022/07/08 01:33:08;;;;;;;7.78;3.00;;;;;;;16.96;52.15;98378.91;5029742;27;20201;-76
2022/07/08 01:35:34;;;;;;;7.40;1.88;;;;;;;16.94;52.24;98386.25;5041927;27;20166;-77
2022/07/08 01:37:59;;;;;;;5.30;1.50;;;;;;;16.95;52.14;98380.75;5032926;27;20190;-77
2022/07/08 01:40:24;;;;;;;4.22;1.50;;;;;;;16.94;52.25;98373.09;5048494;27;20219;-76
2022/07/08 01:42:50;;;;;;;5.22;1.75;;;;;;;16.95;52.00;98377.34;5044398;27;20540;-76
2022/07/08 01:45:15;;;;;;;4.80;1.42;;;;;;;16.96;51.99;98386.78;5020560;27;20731;-76
2022/07/08 01:47:41;;;;;;;6.03;1.45;;;;;;;16.91;52.16;98390.19;5018958;28;20337;-76
2022/07/08 01:50:06;;;;;;;4.95;1.30;;;;;;;16.95;52.18;98387.84;5033542;27;20279;-76
2022/07/08 01:52:32;;;;;;;6.55;1.60;;;;;;;16.94;52.25;98394.94;5044867;27;20728;-76
2022/07/08 01:54:57;;;;;;;4.78;1.30;;;;;;;16.85;52.68;98393.84;5000744;27;20633;-76
2022/07/08 01:57:22;;;;;;;4.35;1.85;;;;;;;16.87;52.46;98390.97;5034728;27;20336;-76
2022/07/08 01:59:49;;;;;;;7.63;1.70;;;;;;;16.89;52.42;98394.13;5049473;27;20211;-76
2022/07/08 02:02:19;;;;;;;4.70;1.95;;;;;;;16.85;52.72;98393.84;5017885;27;20288;-76
2022/07/08 02:04:45;;;;;;;5.38;1.45;;;;;;;16.74;52.79;98398.25;5047177;27;20188;-77
2022/07/08 02:07:10;;;;;;;4.88;1.40;;;;;;;16.79;52.86;98398.28;5029680;27;20233;-76
2022/07/08 02:09:37;;;;;;;5.10;2.00;;;;;;;16.71;53.04;98396.09;5042005;27;20194;-77
2022/07/08 02:12:18;;;;;;;5.88;1.88;;;;;;;16.74;52.99;98392.97;5019447;27;20265;-76
2022/07/08 02:14:46;;;;;;;4.05;1.90;;;;;;;16.83;52.67;98404.59;5042386;27;20655;-76
2022/07/08 02:17:11;;;;;;;6.30;2.28;;;;;;;16.80;52.83;98401.69;5046602;27;20290;-76
2022/07/08 02:19:37;;;;;;;4.82;1.42;;;;;;;16.83;52.76;98404.59;5025622;27;20474;-76
2022/07/08 02:22:03;;;;;;;5.63;1.80;;;;;;;16.85;53.25;98407.00;5024287;27;20158;-77
2022/07/08 02:24:28;;;;;;;6.05;1.63;;;;;;;16.79;53.12;98410.59;5035907;27;20229;-77
2022/07/08 02:26:53;;;;;;;2.47;1.02;;;;;;;16.73;53.03;98417.69;5019837;27;20153;-76
2022/07/08 02:29:19;;;;;;;6.43;2.03;;;;;;;16.75;53.06;98418.22;5006457;27;20204;-76
2022/07/08 02:31:44;;;;;;;4.18;1.60;;;;;;;16.60;53.71;98413.63;5048366;27;20247;-76
2022/07/08 02:34:09;;;;;;;4.47;1.67;;;;;;;16.60;54.02;98402.34;5046321;27;20160;-76
2022/07/08 02:36:35;;;;;;;4.28;1.55;;;;;;;16.51;53.85;98406.50;5029495;27;20394;-77
2022/07/08 02:39:01;;;;;;;6.43;2.22;;;;;;;16.45;54.20;98393.31;5046716;27;20197;-76
2022/07/08 02:41:27;;;;;;;5.70;1.30;;;;;;;16.43;54.35;98403.28;5039684;27;20673;-76
2022/07/08 02:43:52;;;;;;;8.27;2.72;;;;;;;16.29;54.61;98397.63;5030341;27;20238;-76
2022/07/08 02:46:17;;;;;;;7.63;1.60;;;;;;;16.38;54.50;98402.44;5015980;27;20236;-77
2022/07/08 02:48:43;;;;;;;6.85;1.90;;;;;;;16.31;54.74;98404.50;5022346;27;20300;-77
2022/07/08 02:51:08;;;;;;;3.30;1.50;;;;;;;16.37;54.25;98393.78;5023155;27;20195;-77
2022/07/08 02:53:34;;;;;;;6.03;1.80;;;;;;;16.38;54.45;98403.25;5047914;27;20207;-76
2022/07/08 02:55:59;;;;;;;6.85;1.50;;;;;;;16.42;54.03;98396.44;5024862;28;20257;-77
2022/07/08 02:58:24;;;;;;;4.85;1.60;;;;;;;16.46;54.29;98399.34;5019060;28;20635;-76
2022/07/08 03:00:50;;;;;;;4.25;1.80;;;;;;;16.50;53.85;98408.31;5040459;27;20140;-76
2022/07/08 03:03:15;;;;;;;6.90;1.88;;;;;;;16.47;53.90;98398.31;5022698;27;20203;-76
2022/07/08 03:05:41;;;;;;;3.83;1.92;;;;;;;16.48;54.00;98402.50;5045750;27;20646;-76
2022/07/08 03:08:06;;;;;;;3.75;1.60;;;;;;;16.47;54.01;98398.31;5045729;27;20319;-76
2022/07/08 03:10:32;;;;;;;6.43;2.08;;;;;;;16.45;54.01;98411.72;5048251;27;20626;-76
2022/07/08 03:12:58;;;;;;;6.78;1.60;;;;;;;16.38;54.17;98405.06;5029054;27;20160;-76
2022/07/08 03:15:23;;;;;;;5.53;1.65;;;;;;;16.33;54.50;98402.41;5038546;27;20236;-76
2022/07/08 03:17:48;;;;;;;4.43;1.83;;;;;;;16.13;55.09;98409.09;5016755;27;20276;-76
2022/07/08 03:20:14;;;;;;;5.13;1.50;;;;;;;16.19;54.83;98409.91;5028763;27;20651;-77
2022/07/08 03:22:40;;;;;;;5.32;1.50;;;;;;;16.17;54.86;98418.03;5047895;27;20270;-76
2022/07/08 03:25:05;;;;;;;4.22;1.48;;;;;;;16.13;55.13;98418.81;5014972;27;20220;-76
2022/07/08 03:27:31;;;;;;;5.45;1.50;;;;;;;16.06;55.14;98422.44;5037801;27;20277;-76
2022/07/08 03:29:56;;;;;;;6.55;1.67;;;;;;;16.01;55.33;98418.97;5029420;27;20206;-76
2022/07/08 03:32:23;;;;;;;6.55;1.80;;;;;;;16.07;55.02;98436.34;5031349;27;20263;-76
2022/07/08 03:34:49;;;;;;;2.90;1.30;;;;;;;16.05;55.09;98439.22;5035972;27;20200;-76
2022/07/08 03:37:14;;;;;;;5.38;1.58;;;;;;;15.96;54.86;98442.56;5027825;27;20287;-76
2022/07/08 03:39:40;;;;;;;4.22;1.63;;;;;;;15.85;55.29;98439.00;5038273;27;20243;-77
2022/07/08 03:42:05;;;;;;;3.65;1.98;;;;;;;15.74;55.53;98428.38;5028143;27;20137;-76
2022/07/08 03:44:31;;;;;;;4.75;1.77;;;;;;;15.64;56.48;98428.28;5042899;27;20365;-76
2022/07/08 03:46:56;;;;;;;4.90;1.85;;;;;;;15.61;56.38;98427.97;5042901;27;20171;-76
2022/07/08 03:49:22;;;;;;;6.43;1.67;;;;;;;15.58;56.27;98425.84;5027403;27;20289;-76
2022/07/08 03:51:47;;;;;;;4.80;1.45;;;;;;;15.62;56.12;98438.22;5008418;27;20640;-77
2022/07/08 03:54:12;;;;;;;10.10;2.42;;;;;;;15.55;56.00;98441.03;5038669;27;20282;-76
2022/07/08 03:56:38;;;;;;;4.90;1.50;;;;;;;15.49;55.94;98442.03;5044776;27;20241;-76
2022/07/08 03:59:03;;;;;;;7.32;2.38;;;;;;;15.36;56.20;98445.03;5038261;27;20192;-76
2022/07/08 04:01:28;;;;;;;4.05;1.58;;;;;;;15.28;56.68;98450.69;5024292;27;20366;-76
2022/07/08 04:03:54;;;;;;;5.18;1.67;;;;;;;15.23;56.53;98454.03;5032106;27;20197;-76
2022/07/08 04:06:19;;;;;;;4.13;1.88;;;;;;;15.12;57.04;98450.47;5014175;27;20645;-76
2022/07/08 04:08:45;;;;;;;3.50;1.70;;;;;;;15.10;57.51;98452.56;5045204;27;20693;-77
2022/07/08 04:11:11;;;;;;;3.78;1.80;;;;;;;15.14;57.50;98456.28;5016406;27;20229;-76
2022/07/08 04:13:38;;;;;;;3.40;1.90;;;;;;;15.23;57.68;98453.25;5022826;27;20218;-76
2022/07/08 04:16:05;;;;;;;3.90;1.77;;;;;;;15.29;57.30;98460.16;5018222;27;20272;-76
2022/07/08 04:18:31;;;;;;;3.90;2.50;;;;;;;15.36;57.14;98452.91;5044214;27;20239;-76
2022/07/08 04:20:56;;;;;;;5.10;2.17;;;;;;;15.43;57.25;98458.75;5041178;27;20753;-76
2022/07/08 04:23:22;;;;;;;6.60;1.63;;;;;;;15.54;56.90;98454.41;5003995;27;20358;-76
2022/07/08 04:25:47;;;;;;;4.90;1.70;;;;;;;15.48;57.08;98456.19;5020833;27;20193;-76
2022/07/08 04:28:13;;;;;;;3.67;1.83;;;;;;;15.45;57.17;98446.16;5044532;27;20235;-77
2022/07/08 04:30:38;;;;;;;4.82;1.83;;;;;;;15.42;57.28;98454.56;5027260;27;20207;-76
2022/07/08 04:33:03;;;;;;;5.10;1.80;;;;;;;15.42;57.48;98465.06;5037353;27;20731;-76
2022/07/08 04:35:29;;;;;;;5.38;1.83;;;;;;;15.43;57.53;98461.38;5044766;27;20349;-76
2022/07/08 04:37:54;;;;;;;3.17;1.67;;;;;;;15.54;57.28;98465.72;5013732;27;20170;-76
2022/07/08 04:40:20;;;;;;;3.42;1.50;;;;;;;15.56;57.25;98468.09;5046891;27;20206;-76
2022/07/08 04:42:45;;;;;;;5.65;1.88;;;;;;;15.64;56.81;98475.53;5046215;27;20279;-76
2022/07/08 04:45:11;;;;;;;4.22;1.58;;;;;;;15.65;57.22;98481.59;5031886;27;20204;-76
2022/07/08 04:47:36;;;;;;;5.90;1.63;;;;;;;15.64;57.56;98485.25;5034039;28;20243;-76
2022/07/08 04:50:02;;;;;;;4.72;1.73;;;;;;;15.66;57.51;98481.34;5020329;28;20297;-76
2022/07/08 04:52:28;;;;;;;6.20;2.20;;;;;;;15.73;57.77;98483.78;5044650;28;20215;-76
2022/07/08 04:54:53;;;;;;;5.85;1.70;;;;;;;15.78;57.86;98483.88;5008183;28;20264;-76
2022/07/08 04:57:19;;;;;;;4.72;1.95;;;;;;;15.94;57.12;98490.09;5035663;28;20241;-76
2022/07/08 04:59:44;;;;;;;3.35;1.58;;;;;;;15.99;56.32;98490.13;5043732;28;20685;-76
2022/07/08 05:02:09;;;;;;;2.80;1.60;;;;;;;15.99;56.40;98490.13;5025553;28;20286;-76
2022/07/08 05:04:35;;;;;;;3.92;1.48;;;;;;;16.07;56.18;98499.41;5026266;28;20285;-76
2022/07/08 05:07:00;;;;;;;3.53;1.60;;;;;;;16.14;56.61;98502.63;5009381;28;20200;-76
2022/07/08 05:09:26;;;;;;;5.80;1.80;;;;;;;16.23;55.94;98503.00;5043152;28;20310;-76
2022/07/08 05:11:51;;;;;;;2.95;1.60;;;;;;;16.25;56.00;98504.31;5035900;28;20202;-76
2022/07/08 05:14:17;;;;;;;5.40;1.98;;;;;;;16.23;56.07;98501.16;5033738;27;20202;-76
2022/07/08 05:16:43;;;;;;;2.72;1.30;;;;;;;16.33;55.93;98508.34;5025613;28;20775;-76
2022/07/08 05:19:09;;;;;;;4.00;2.03;;;;;;;16.40;55.61;98508.13;5026499;28;20289;-76
2022/07/08 05:21:37;;;;;;;3.17;1.58;;;;;;;16.46;55.47;98505.28;4996313;28;20191;-76
2022/07/08 05:24:06;;;;;;;6.13;2.17;;;;;;;16.42;55.62;98506.84;5019535;28;20577;-76
2022/07/08 05:26:32;;;;;;;4.22;1.75;;;;;;;16.61;55.26;98506.47;5026119;28;20277;-76
2022/07/08 05:28:58;;;;;;;5.68;1.90;;;;;;;16.64;55.14;98513.88;5018947;28;20122;-76
2022/07/08 05:31:23;;;;;;;4.28;1.80;;;;;;;16.66;55.13;98509.94;5045255;27;20156;-76
2022/07/08 05:33:49;;;;;;;5.93;1.88;;;;;;;16.77;55.17;98515.28;5045143;28;20214;-75
2022/07/08 05:36:14;;;;;;;5.30;2.00;;;;;;;16.89;54.75;98521.19;5034519;28;20191;-75
2022/07/08 05:38:39;;;;;;;4.43;1.70;;;;;;;16.94;54.32;98512.53;5043149;27;20199;-75
2022/07/08 05:41:05;;;;;;;7.60;2.13;;;;;;;16.98;54.57;98518.88;4999228;27;20164;-75
2022/07/08 05:43:30;;;;;;;4.47;2.05;;;;;;;17.02;54.42;98514.72;5018864;28;20167;-75
2022/07/08 05:45:56;;;;;;;3.67;1.90;;;;;;;17.11;53.99;98522.94;5034279;27;20701;-75
2022/07/08 05:48:22;;;;;;;3.78;1.65;;;;;;;17.18;53.99;98528.75;5048970;27;20354;-75
2022/07/08 05:50:48;;;;;;;5.55;1.95;;;;;;;17.26;53.99;98525.66;5030534;27;20734;-75
2022/07/08 05:53:16;;;;;;;4.85;2.28;;;;;;;17.25;54.09;98528.53;5030968;27;20187;-77
2022/07/08 05:55:44;;;;;;;3.85;1.50;;;;;;;17.31;54.10;98527.53;5040532;27;20591;-76
2022/07/08 05:58:10;;;;;;;5.82;1.67;;;;;;;17.40;52.85;98541.78;5043680;27;20617;-75
2022/07/08 06:00:35;;;;;;;7.57;2.03;;;;;;;17.44;52.64;98534.16;5030270;27;20191;-75
2022/07/08 06:03:03;;;;;;;5.88;3.03;;;;;;;17.55;52.92;98544.50;5013269;27;20175;-76
2022/07/08 06:05:29;;;;;;;5.22;1.60;;;;;;;17.38;53.58;98541.25;5047690;27;20283;-76
2022/07/08 06:07:54;;;;;;;6.70;2.42;;;;;;;17.51;52.91;98542.63;5043959;27;20317;-76
2022/07/08 06:10:19;;;;;;;5.40;1.80;;;;;;;17.52;52.56;98547.63;5030408;27;20207;-76
2022/07/08 06:12:45;;;;;;;4.57;2.00;;;;;;;17.55;53.06;98554.25;5030354;27;20178;-76
2022/07/08 06:15:14;;;;;;;4.95;2.00;;;;;;;17.40;52.85;98545.22;5017013;27;20183;-76
2022/07/08 06:17:40;;;;;;;6.38;1.90;;;;;;;17.78;51.58;98558.31;5028328;27;20268;-76
2022/07/08 06:20:07;;;;;;;4.95;2.08;;;;;;;17.54;52.07;98561.34;5047081;27;20256;-76
2022/07/08 06:22:33;;;;;;;5.13;1.73;;;;;;;17.50;53.01;98556.84;5047100;27;20178;-76
2022/07/08 06:24:59;;;;;;;3.15;1.63;;;;;;;17.60;52.78;98564.81;5049249;27;20207;-76
2022/07/08 06:27:25;;;;;;;5.32;1.67;;;;;;;17.55;52.43;98555.03;5048745;27;20639;-76
2022/07/08 06:29:50;;;;;;;5.28;2.53;;;;;;;17.87;51.69;98556.00;5047161;27;20718;-76
2022/07/08 06:32:15;;;;;;;6.35;1.98;;;;;;;17.96;51.91;98549.97;5045770;27;20648;-76
2022/07/08 06:34:41;;;;;;;6.72;1.92;;;;;;;17.47;52.42;98557.38;5029721;27;20698;-76
2022/07/08 06:37:06;;;;;;;5.57;2.33;;;;;;;17.10;53.02;98555.53;5029510;27;20200;-76
2022/07/08 06:39:32;;;;;;;5.82;2.00;;;;;;;17.49;52.11;98563.94;5029837;27;20697;-75
2022/07/08 06:41:57;;;;;;;3.83;1.40;;;;;;;17.68;51.66;98559.03;5012813;27;20201;-75
2022/07/08 06:44:22;;;;;;;3.92;1.63;;;;;;;17.67;51.42;98554.84;5012875;27;20186;-76
2022/07/08 06:46:48;;;;;;;3.72;1.48;;;;;;;17.85;50.80;98558.84;5043601;27;20164;-75
2022/07/08 06:49:13;;;;;;;4.85;2.10;;;;;;;17.98;50.55;98562.13;5047147;27;20198;-75
2022/07/08 06:51:38;;;;;;;5.28;1.80;;;;;;;18.12;50.94;98552.66;5046315;27;20203;-75
2022/07/08 06:56:48;;;;;;;4.13;1.70;;;;;;;17.96;50.45;98555.25;5046336;27;20207;-76
2022/07/08 06:59:13;;;;;;;5.43;1.83;;;;;;;17.90;50.73;98566.03;5012767;27;20187;-76
2022/07/08 07:01:39;;;;;;;11.13;2.08;;;;;;;17.89;50.91;98564.44;5038860;27;20191;-75
2022/07/08 07:04:04;;;;;;;5.20;1.70;;;;;;;17.88;50.72;98568.13;5048537;27;20637;-76
2022/07/08 07:06:30;;;;;;;3.92;1.75;;;;;;;18.03;50.92;98573.47;5028657;27;20160;-75
2022/07/08 07:08:55;;;;;;;3.22;1.90;;;;;;;18.41;50.84;98571.44;5046211;27;20397;-75
2022/07/08 07:11:21;;;;;;;5.40;1.70;;;;;;;18.82;49.90;98568.88;5029138;27;20239;-75
2022/07/08 07:13:48;;;;;;;4.75;1.20;;;;;;;19.53;47.53;98575.13;5042570;27;20222;-75
2022/07/08 07:16:14;;;;;;;4.40;1.40;;;;;;;19.81;45.43;98573.00;5044052;27;20279;-75
2022/07/08 07:18:40;;;;;;;3.25;1.60;;;;;;;19.85;45.77;98574.03;5045894;27;20321;-75
2022/07/08 07:21:05;;;;;;;3.55;1.30;;;;;;;19.92;45.38;98573.72;5045669;27;20225;-75
2022/07/08 07:23:31;;;;;;;3.60;1.23;;;;;;;20.25;44.18;98568.81;5027705;27;20160;-77
2022/07/08 07:25:56;;;;;;;3.25;1.10;;;;;;;20.71;43.14;98573.84;5040721;27;20160;-75
2022/07/08 07:28:22;;;;;;;3.95;1.17;;;;;;;20.74;43.20;98570.66;5028658;27;20364;-76
2022/07/08 07:30:47;;;;;;;6.00;1.27;;;;;;;21.08;41.87;98567.19;5028654;27;20217;-76
2022/07/08 07:33:13;;;;;;;4.97;1.50;;;;;;;21.26;41.46;98563.03;5047323;27;20221;-77
2022/07/08 07:35:38;;;;;;;1.70;0.93;;;;;;;21.65;41.81;98570.09;5045572;27;20195;-76
2022/07/08 07:38:03;;;;;;;4.28;1.38;;;;;;;22.10;40.42;98570.59;5028604;27;20210;-75
2022/07/08 07:40:29;;;;;;;4.63;1.73;;;;;;;22.19;41.01;98568.09;5045310;27;20250;-76
2022/07/08 07:42:54;;;;;;;4.72;1.55;;;;;;;21.43;40.86;98567.91;5045720;27;20276;-75
2022/07/08 07:45:20;;;;;;;5.88;1.73;;;;;;;21.69;39.74;98563.94;5031592;27;20188;-75
2022/07/08 07:47:45;;;;;;;5.25;1.50;;;;;;;21.89;39.71;98568.19;5044769;27;20302;-75
2022/07/08 07:50:12;;;;;;;5.22;1.50;;;;;;;21.82;40.05;98559.81;5047050;27;20222;-76
2022/07/08 07:52:38;;;;;;;5.75;1.17;;;;;;;22.25;38.01;98556.34;5028388;27;20343;-75
2022/07/08 07:55:05;;;;;;;3.97;1.25;;;;;;;22.23;38.34;98553.97;5011491;27;20686;-76
2022/07/08 07:57:30;;;;;;;4.75;1.10;;;;;;;21.84;38.28;98555.00;5027966;27;20633;-77
2022/07/08 07:59:56;;;;;;;2.00;0.98;;;;;;;21.98;38.71;98564.94;5045361;27;20230;-75
2022/07/08 08:02:21;;;;;;;4.80;1.80;;;;;;;21.71;38.57;98555.69;5027400;27;20179;-76
2022/07/08 08:04:46;;;;;;;3.97;1.42;;;;;;;22.19;37.78;98558.28;5028097;27;20165;-77
2022/07/08 08:07:12;;;;;;;2.55;1.08;;;;;;;22.48;36.81;98552.06;5027669;27;20387;-76
2022/07/08 08:09:37;;;;;;;2.42;1.05;;;;;;;22.81;36.58;98549.44;5044637;27;20361;-76
2022/07/08 08:12:03;;;;;;;3.40;1.10;;;;;;;22.62;35.80;98558.22;5044873;27;20203;-76
2022/07/08 08:14:29;;;;;;;3.88;1.23;;;;;;;22.64;36.86;98549.97;5024571;27;20191;-76
2022/07/08 08:16:54;;;;;;;2.28;1.40;;;;;;;22.88;37.60;98554.38;5027460;27;20642;-76
2022/07/08 08:19:19;;;;;;;3.10;1.25;;;;;;;22.88;37.62;98555.16;5027988;27;20280;-76
2022/07/08 08:21:45;;;;;;;2.72;1.00;;;;;;;22.87;36.97;98553.56;5027805;27;20198;-76
2022/07/08 08:24:10;;;;;;;4.15;1.27;;;;;;;22.12;38.30;98565.78;5046752;27;20203;-75
2022/07/08 08:26:35;;;;;;;2.90;0.93;;;;;;;22.00;39.23;98573.38;5046595;27;20251;-75
2022/07/08 08:29:01;;;;;;;2.67;1.20;;;;;;;21.76;39.13;98568.88;5044640;27;20236;-75
2022/07/08 08:31:26;;;;;;;1.67;0.85;;;;;;;22.14;38.95;98560.19;5041210;27;20301;-76
2022/07/08 08:33:52;;;;;;;6.22;1.52;;;;;;;21.72;38.58;98569.75;5043574;27;20267;-75
2022/07/08 08:36:17;;;;;;;2.90;1.38;;;;;;;22.29;38.23;98565.31;5110176;28;20039;-76
2022/07/08 08:38:42;;;;;;;5.57;1.35;;;;;;;22.63;38.02;98565.09;5058729;27;20347;-75
2022/07/08 08:41:08;;;;;;;2.25;0.90;;;;;;;23.12;37.62;98564.88;4997965;27;20281;-76
2022/07/08 08:43:33;;;;;;;2.78;1.13;;;;;;;23.16;36.54;98564.00;5021263;28;20197;-75
2022/07/08 08:45:59;;;;;;;3.53;1.35;;;;;;;;;;5019131;28;20354;-76
2022/07/08 08:48:26;;;;;;;4.82;1.40;;;;;;;23.21;36.75;98563.13;5038709;27;20232;-76
2022/07/08 08:50:53;;;;;;;5.18;1.60;;;;;;;22.99;36.69;98561.06;5020721;28;20202;-77
2022/07/08 08:53:29;;;;;;;2.90;1.10;;;;;;;22.52;36.67;98562.91;5027459;28;20236;-76
2022/07/08 08:55:55;;;;;;;5.05;1.10;;;;;;;22.56;36.53;98559.38;5027157;28;20278;-76
2022/07/08 08:58:21;;;;;;;2.42;1.30;;;;;;;23.11;35.69;98563.31;5004383;28;20164;-76
2022/07/08 09:00:47;;;;;;;5.38;1.52;;;;;;;23.40;35.57;98559.59;5026915;28;20656;-76
2022/07/08 09:03:12;;;;;;;3.63;1.40;;;;;;;23.60;35.36;98553.91;5010832;28;20223;-77
2022/07/08 09:05:38;;;;;;;3.72;1.02;;;;;;;23.88;34.61;98553.91;5046089;28;20229;-77
2022/07/08 09:08:03;;;;;;;3.55;1.10;;;;;;;24.09;34.18;98548.94;5044407;28;20235;-77
2022/07/08 09:10:29;;;;;;;4.63;1.17;;;;;;;24.07;33.90;98551.88;5011046;28;20187;-76
2022/07/08 09:13:08;;;;;;;2.75;1.38;;;;;;;23.95;34.40;98551.63;5041910;27;20195;-77
2022/07/08 09:15:39;;;;;;;1.98;1.38;;;;;;;24.52;33.78;98555.69;5003883;28;20685;-76
2022/07/08 09:18:12;;;;;;;2.92;1.35;;;;;;;24.98;31.85;98549.28;5010743;27;20194;-76
2022/07/08 09:20:44;;;;;;;5.55;1.52;;;;;;;24.73;32.25;98558.69;5041499;27;20184;-75
2022/07/08 09:23:18;;;;;;;2.58;0.90;;;;;;;24.17;34.22;98558.09;5048386;27;20693;-76
2022/07/08 09:25:49;;;;;;;2.05;1.02;;;;;;;24.15;34.29;98562.94;5040670;27;20293;-76
2022/07/08 09:28:16;;;;;;;4.28;1.25;;;;;;;24.28;34.08;98567.41;5007270;27;20646;-78
2022/07/08 09:30:44;;;;;;;2.97;1.10;;;;;;;24.50;33.70;98569.31;5031220;27;20191;-76
2022/07/08 09:33:11;;;;;;;2.83;1.48;;;;;;;24.57;33.40;98561.72;5043574;27;20691;-77
2022/07/08 09:35:38;;;;;;;3.70;1.30;;;;;;;24.45;33.95;98570.25;5047852;27;20314;-77
2022/07/08 09:38:06;;;;;;;3.67;1.30;;;;;;;24.49;33.10;98571.19;5045907;27;20289;-76
2022/07/08 09:40:32;;;;;;;1.75;1.17;;;;;;;24.00;34.10;98572.78;5047673;27;20582;-76
2022/07/08 09:43:03;;;;;;;3.28;1.20;;;;;;;23.51;34.79;98580.38;5028399;27;20173;-77
2022/07/08 09:45:34;;;;;;;3.13;1.30;;;;;;;23.60;34.40;98569.84;5015613;27;20597;-76
2022/07/08 09:48:01;;;;;;;5.68;2.20;;;;;;;23.80;34.15;98570.53;5030238;27;20222;-75
2022/07/08 09:50:34;;;;;;;3.88;1.33;;;;;;;23.92;33.32;98560.19;5013391;27;20156;-76
2022/07/08 09:53:00;;;;;;;5.70;1.63;;;;;;;23.73;33.88;98558.44;5030794;27;20224;-76
2022/07/08 09:55:31;;;;;;;2.15;1.02;;;;;;;24.14;32.88;98561.34;5008981;27;20281;-76
2022/07/08 09:57:57;;;;;;;2.85;1.23;;;;;;;24.43;33.23;98547.66;5030376;27;20122;-76
2022/07/08 10:00:23;;;;;;;2.63;1.27;;;;;;;24.38;33.86;98561.84;5030425;27;20348;-76
2022/07/08 10:02:48;;;;;;;3.30;1.27;;;;;;;24.76;33.05;98560.75;5013316;27;20361;-76
2022/07/08 10:05:14;;;;;;;6.68;1.80;;;;;;;25.35;31.93;98560.63;5049429;27;20652;-76
2022/07/08 10:07:39;;;;;;;3.97;1.40;;;;;;;25.46;32.01;98564.59;5042930;27;20672;-77
2022/07/08 10:10:05;;;;;;;3.42;1.50;;;;;;;25.31;32.17;98560.47;5014403;27;20271;-77
2022/07/08 10:12:32;;;;;;;3.60;1.00;;;;;;;25.89;30.86;98557.81;5047486;27;20609;-76
2022/07/08 10:14:57;;;;;;;3.33;1.30;;;;;;;26.10;30.52;98553.47;5036029;27;20230;-77
2022/07/08 10:17:23;;;;;;;2.33;1.50;;;;;;;26.13;30.74;98557.38;5046962;27;20110;-77
2022/07/08 10:19:50;;;;;;;1.83;1.00;;;;;;;26.46;29.69;98549.72;5046769;27;20516;-77
2022/07/08 10:22:16;;;;;;;2.40;1.60;;;;;;;25.61;30.19;98560.72;5017411;28;20265;-76
2022/07/08 10:24:43;;;;;;;3.33;1.58;;;;;;;25.79;30.79;98559.69;5028449;27;20687;-76
2022/07/08 10:27:10;;;;;;;2.22;1.67;;;;;;;25.49;30.85;98555.97;5046685;27;20319;-77
2022/07/08 10:29:39;;;;;;;2.85;1.58;;;;;;;25.90;30.84;98560.16;5030215;27;20186;-76
2022/07/08 10:32:22;;;;;;;4.10;1.20;;;;;;;25.93;29.19;98556.88;5030198;27;20280;-77
2022/07/08 10:35:06;;;;;;;2.83;1.38;;;;;;;26.15;29.40;98560.56;5035552;27;20858;-77
2022/07/08 10:37:55;;;;;;;3.28;1.13;;;;;;;26.57;28.96;98555.50;5012392;27;20196;-77
2022/07/08 10:40:42;;;;;;;4.45;1.45;;;;;;;26.94;28.76;98550.59;5022765;27;20664;-76
2022/07/08 10:43:27;;;;;;;4.53;1.27;;;;;;;27.43;29.16;98556.41;5046229;27;20272;-76
2022/07/08 10:46:10;;;;;;;2.67;1.20;;;;;;;27.81;26.87;98552.94;5006145;27;20435;-76
2022/07/08 10:48:39;;;;;;;2.15;1.25;;;;;;;27.79;27.58;98552.44;5029565;27;20203;-75
2022/07/08 10:51:04;;;;;;;2.08;0.98;;;;;;;27.12;28.47;98547.88;5029563;27;20272;-75
2022/07/08 10:54:00;;;;;;;1.77;1.25;;;;;;;27.59;26.89;98550.53;5048316;27;20079;-75
2022/07/08 10:56:57;;;;;;;1.63;1.00;;;;;;;27.65;26.47;98543.88;4993117;27;20202;-75
2022/07/08 10:59:35;;;;;;;1.98;1.20;;;;;;;26.90;28.25;98560.34;5047586;27;20313;-76
2022/07/08 11:02:06;;;;;;;2.58;1.33;;;;;;;27.05;28.40;98554.50;5029356;27;20610;-77
2022/07/08 11:04:35;;;;;;;2.67;1.27;;;;;;;27.40;28.72;98549.06;5046235;27;20304;-77
2022/07/08 11:07:27;;;;;;;2.45;1.00;;;;;;;27.63;27.51;98540.75;5037638;27;20206;-75
2022/07/08 11:10:02;;;;;;;7.13;1.38;;;;;;;27.45;27.43;98551.56;5028919;27;20209;-76
2022/07/08 11:12:33;;;;;;;2.28;1.20;;;;;;;27.71;28.23;98539.94;5041679;27;20287;-75
2022/07/08 11:14:59;;;;;;;3.90;1.20;;;;;;;28.11;27.65;98534.16;5003322;27;20192;-76
2022/07/08 11:17:31;;;;;;;2.75;1.58;;;;;;;27.62;26.59;98539.19;5045344;27;20203;-75
2022/07/08 11:19:58;;;;;;;2.92;1.80;;;;;;;26.91;28.09;98543.22;5045923;27;20210;-75
2022/07/08 11:22:25;;;;;;;2.55;1.40;;;;;;;27.06;27.94;98540.03;5028834;27;20640;-76
2022/07/08 11:24:51;;;;;;;3.13;1.23;;;;;;;26.79;27.89;98535.09;5012268;27;20235;-75
2022/07/08 11:27:22;;;;;;;1.83;1.25;;;;;;;26.67;28.21;98533.06;5045425;27;20199;-76
2022/07/08 11:29:52;;;;;;;2.75;1.83;;;;;;;26.47;29.11;98537.91;5016856;27;20195;-75
2022/07/08 11:32:19;;;;;;;2.65;2.15;;;;;;;26.86;27.78;98535.38;5028460;27;20187;-75
2022/07/08 11:34:45;;;;;;;3.67;2.00;;;;;;;26.31;29.45;98542.19;5028870;27;20248;-75